createdAt,value
2023-01-19T00:00:19.442Z,979.9
2023-01-19T00:01:21.185Z,979.87
2023-01-19T00:02:22.980Z,979.87
2023-01-19T00:03:24.687Z,979.9
2023-01-19T00:04:26.370Z,979.91
2023-01-19T00:05:28.120Z,979.93
2023-01-19T00:06:29.884Z,979.91
2023-01-19T00:07:31.620Z,979.91
2023-01-19T00:08:33.334Z,979.88
2023-01-19T00:09:35.035Z,979.84
2023-01-19T00:10:36.765Z,979.9
2023-01-19T00:11:38.519Z,979.81
2023-01-19T00:12:40.452Z,979.88
2023-01-19T00:13:42.110Z,979.83
2023-01-19T00:14:43.727Z,979.87
2023-01-19T00:15:45.477Z,979.85
2023-01-19T00:16:47.182Z,979.79
2023-01-19T00:17:48.937Z,979.82
2023-01-19T00:18:50.654Z,979.83
2023-01-19T00:19:52.431Z,979.87
2023-01-19T00:20:54.122Z,979.85
2023-01-19T00:21:55.892Z,979.88
2023-01-19T00:22:58.114Z,979.93
2023-01-19T00:23:59.359Z,979.95
2023-01-19T00:25:01.047Z,979.9
2023-01-19T00:26:02.821Z,979.89
2023-01-19T00:27:04.509Z,979.93
2023-01-19T00:28:06.266Z,979.97
2023-01-19T00:29:07.989Z,979.92
2023-01-19T00:30:09.763Z,979.91
2023-01-19T00:31:11.500Z,980.02
2023-01-19T00:32:13.199Z,980.02
2023-01-19T00:33:14.937Z,980.01
2023-01-19T00:34:16.712Z,980.05
2023-01-19T00:35:18.446Z,980.1
2023-01-19T00:36:20.127Z,979.98
2023-01-19T00:37:21.876Z,980.01
2023-01-19T00:38:23.597Z,980.02
2023-01-19T00:39:25.313Z,980.07
2023-01-19T00:40:27.079Z,980.08
2023-01-19T00:41:28.813Z,980.04
2023-01-19T00:42:30.551Z,980.04
2023-01-19T00:43:32.248Z,980.1
2023-01-19T00:44:34.001Z,980.02
2023-01-19T00:45:35.876Z,980.04
2023-01-19T00:46:37.493Z,980.03
2023-01-19T00:47:39.247Z,980.06
2023-01-19T00:48:40.976Z,980.05
2023-01-19T00:49:42.659Z,980.07
2023-01-19T00:50:44.393Z,980.09
2023-01-19T00:51:46.142Z,980.03
2023-01-19T00:52:47.872Z,980.02
2023-01-19T00:53:49.596Z,980.11
2023-01-19T00:54:51.349Z,980.11
2023-01-19T00:55:53.067Z,980.01
2023-01-19T00:56:54.790Z,980.09
2023-01-19T00:57:56.571Z,980.18
2023-01-19T00:58:58.294Z,980.15
2023-01-19T01:00:00.020Z,980.15
2023-01-19T01:01:01.866Z,980.1
2023-01-19T01:02:03.698Z,980.13
2023-01-19T01:03:05.500Z,980.17
2023-01-19T01:04:06.939Z,980.14
2023-01-19T01:05:08.681Z,980.15
2023-01-19T01:06:10.390Z,980.18
2023-01-19T01:07:12.153Z,980.24
2023-01-19T01:08:13.905Z,980.25
2023-01-19T01:09:15.594Z,980.19
2023-01-19T01:10:17.356Z,980.14
2023-01-19T01:11:19.081Z,980.24
2023-01-19T01:12:20.799Z,980.23
2023-01-19T01:13:22.862Z,980.26
2023-01-19T01:14:24.274Z,980.23
2023-01-19T01:15:26.050Z,980.17
2023-01-19T01:16:27.838Z,980.24
2023-01-19T01:17:29.462Z,980.26
2023-01-19T01:18:31.197Z,980.26
2023-01-19T01:19:32.963Z,980.27
2023-01-19T01:20:34.655Z,980.33
2023-01-19T01:21:36.427Z,980.35
2023-01-19T01:22:38.130Z,980.35
2023-01-19T01:23:39.865Z,980.34
2023-01-19T01:24:41.594Z,980.34
2023-01-19T01:25:43.374Z,980.3
2023-01-19T01:26:45.078Z,980.32
2023-01-19T01:27:46.824Z,980.31
2023-01-19T01:28:48.569Z,980.3
2023-01-19T01:29:50.287Z,980.36
2023-01-19T01:30:52.032Z,980.38
2023-01-19T01:31:53.761Z,980.37
2023-01-19T01:32:55.476Z,980.37
2023-01-19T01:33:57.201Z,980.4
2023-01-19T01:34:58.947Z,980.41
2023-01-19T01:36:00.697Z,980.42
2023-01-19T01:37:02.430Z,980.4
2023-01-19T01:38:04.162Z,980.45
2023-01-19T01:39:05.901Z,980.4
2023-01-19T01:40:07.650Z,980.44
2023-01-19T01:41:09.357Z,980.43
2023-01-19T01:42:11.109Z,980.42
2023-01-19T01:43:12.869Z,980.43
2023-01-19T01:44:14.553Z,980.41
2023-01-19T01:45:16.314Z,980.46
2023-01-19T01:46:18.161Z,980.34
2023-01-19T01:47:19.742Z,980.38
2023-01-19T01:48:21.491Z,980.38
2023-01-19T01:49:23.224Z,980.38
2023-01-19T01:50:24.965Z,980.37
2023-01-19T01:51:26.689Z,980.44
2023-01-19T01:52:28.407Z,980.47
2023-01-19T01:53:30.132Z,980.46
2023-01-19T01:54:31.905Z,980.5
2023-01-19T01:55:33.628Z,980.49
2023-01-19T01:56:35.372Z,980.53
2023-01-19T01:57:37.060Z,980.49
2023-01-19T01:58:38.828Z,980.59
2023-01-19T01:59:40.582Z,980.5
2023-01-19T02:00:42.295Z,980.49
2023-01-19T02:01:44.243Z,980.5
2023-01-19T02:02:45.752Z,980.56
2023-01-19T02:03:47.482Z,980.57
2023-01-19T02:04:49.229Z,980.55
2023-01-19T02:05:50.964Z,980.55
2023-01-19T02:06:52.710Z,980.57
2023-01-19T02:07:54.383Z,980.52
2023-01-19T02:08:56.187Z,980.63
2023-01-19T02:09:57.910Z,980.56
2023-01-19T02:10:59.629Z,980.56
2023-01-19T02:12:01.340Z,980.6
2023-01-19T02:13:03.588Z,980.58
2023-01-19T02:14:04.803Z,980.5
2023-01-19T02:15:06.520Z,980.53
2023-01-19T02:16:08.270Z,980.61
2023-01-19T02:17:10.041Z,980.59
2023-01-19T02:18:11.744Z,980.54
2023-01-19T02:19:13.466Z,980.57
2023-01-19T02:20:15.253Z,980.53
2023-01-19T02:21:16.932Z,980.52
2023-01-19T02:22:18.668Z,980.47
2023-01-19T02:23:20.443Z,980.49
2023-01-19T02:24:22.156Z,980.47
2023-01-19T02:25:23.913Z,980.43
2023-01-19T02:26:25.630Z,980.53
2023-01-19T02:27:27.366Z,980.46
2023-01-19T02:28:29.060Z,980.51
2023-01-19T02:29:30.805Z,980.43
2023-01-19T02:30:32.604Z,980.49
2023-01-19T02:31:34.266Z,980.51
2023-01-19T02:32:36.011Z,980.55
2023-01-19T02:33:37.731Z,980.52
2023-01-19T02:34:39.484Z,980.55
2023-01-19T02:35:41.203Z,980.55
2023-01-19T02:36:42.926Z,980.53
2023-01-19T02:37:44.721Z,980.54
2023-01-19T02:38:46.443Z,980.58
2023-01-19T02:39:48.132Z,980.54
2023-01-19T02:40:49.867Z,980.53
2023-01-19T02:41:51.621Z,980.44
2023-01-19T02:42:53.411Z,980.55
2023-01-19T02:43:55.072Z,980.54
2023-01-19T02:44:56.873Z,980.55
2023-01-19T02:45:58.637Z,980.47
2023-01-19T02:47:00.331Z,980.46
2023-01-19T02:48:02.000Z,980.42
2023-01-19T02:49:03.738Z,980.45
2023-01-19T02:50:05.505Z,980.43
2023-01-19T02:51:07.205Z,980.42
2023-01-19T02:52:08.932Z,980.43
2023-01-19T02:53:10.714Z,980.4
2023-01-19T02:54:12.420Z,980.44
2023-01-19T02:55:14.172Z,980.37
2023-01-19T02:56:15.901Z,980.4
2023-01-19T02:57:17.631Z,980.42
2023-01-19T02:58:19.349Z,980.44
2023-01-19T02:59:21.135Z,980.47
2023-01-19T03:00:22.817Z,980.52
2023-01-19T03:01:24.869Z,980.45
2023-01-19T03:02:26.397Z,980.42
2023-01-19T03:03:28.219Z,980.41
2023-01-19T03:04:29.792Z,980.47
2023-01-19T03:05:31.477Z,980.44
2023-01-19T03:06:33.237Z,980.46
2023-01-19T03:07:34.998Z,980.5
2023-01-19T03:08:36.678Z,980.5
2023-01-19T03:09:38.440Z,980.44
2023-01-19T03:10:40.194Z,980.43
2023-01-19T03:11:41.894Z,980.38
2023-01-19T03:12:43.622Z,980.41
2023-01-19T03:13:45.364Z,980.4
2023-01-19T03:14:47.092Z,980.43
2023-01-19T03:15:48.884Z,980.35
2023-01-19T03:16:50.877Z,980.42
2023-01-19T03:17:52.301Z,980.42
2023-01-19T03:18:54.032Z,980.41
2023-01-19T03:19:55.742Z,980.37
2023-01-19T03:20:57.511Z,980.36
2023-01-19T03:21:59.237Z,980.38
2023-01-19T03:23:01.366Z,980.33
2023-01-19T03:24:02.724Z,980.37
2023-01-19T03:25:04.421Z,980.36
2023-01-19T03:26:06.163Z,980.32
2023-01-19T03:27:07.886Z,980.35
2023-01-19T03:28:09.637Z,980.27
2023-01-19T03:29:11.362Z,980.38
2023-01-19T03:30:13.124Z,980.35
2023-01-19T03:31:14.953Z,980.33
2023-01-19T03:32:16.561Z,980.3
2023-01-19T03:33:18.297Z,980.36
2023-01-19T03:34:20.062Z,980.37
2023-01-19T03:35:21.770Z,980.36
2023-01-19T03:36:23.526Z,980.3
2023-01-19T03:37:25.251Z,980.26
2023-01-19T03:38:27.040Z,980.31
2023-01-19T03:39:28.972Z,980.33
2023-01-19T03:40:30.470Z,980.31
2023-01-19T03:41:32.276Z,980.25
2023-01-19T03:42:33.905Z,980.32
2023-01-19T03:43:35.692Z,980.35
2023-01-19T03:44:37.387Z,980.35
2023-01-19T03:45:39.241Z,980.29
2023-01-19T03:46:40.830Z,980.34
2023-01-19T03:47:42.618Z,980.3
2023-01-19T03:48:44.330Z,980.29
2023-01-19T03:49:46.050Z,980.37
2023-01-19T03:50:47.750Z,980.29
2023-01-19T03:51:49.488Z,980.31
2023-01-19T03:52:51.262Z,980.27
2023-01-19T03:53:53.005Z,980.31
2023-01-19T03:54:54.723Z,980.37
2023-01-19T03:55:56.438Z,980.39
2023-01-19T03:56:58.161Z,980.37
2023-01-19T03:57:59.899Z,980.37
2023-01-19T03:59:01.647Z,980.43
2023-01-19T04:00:03.390Z,980.44
2023-01-19T04:01:05.152Z,980.48
2023-01-19T04:02:06.889Z,980.48
2023-01-19T04:03:08.695Z,980.43
2023-01-19T04:04:10.307Z,980.51
2023-01-19T04:05:12.072Z,980.47
2023-01-19T04:06:13.808Z,980.46
2023-01-19T04:07:15.544Z,980.49
2023-01-19T04:08:17.246Z,980.5
2023-01-19T04:09:20.061Z,980.53
2023-01-19T04:10:20.718Z,980.57
2023-01-19T04:11:22.487Z,980.56
2023-01-19T04:12:24.228Z,980.59
2023-01-19T04:13:25.918Z,980.46
2023-01-19T04:14:27.659Z,980.54
2023-01-19T04:15:29.387Z,980.61
2023-01-19T04:16:31.100Z,980.56
2023-01-19T04:17:32.888Z,980.61
2023-01-19T04:18:34.969Z,980.57
2023-01-19T04:19:36.344Z,980.61
2023-01-19T04:20:38.069Z,980.47
2023-01-19T04:21:39.818Z,980.58
2023-01-19T04:22:41.519Z,980.56
2023-01-19T04:23:43.246Z,980.51
2023-01-19T04:24:45.013Z,980.53
2023-01-19T04:25:46.731Z,980.52
2023-01-19T04:26:48.497Z,980.51
2023-01-19T04:27:50.165Z,980.53
2023-01-19T04:28:51.956Z,980.47
2023-01-19T04:29:53.696Z,980.47
2023-01-19T04:30:55.428Z,980.51
2023-01-19T04:31:57.160Z,980.52
2023-01-19T04:32:59.255Z,980.47
2023-01-19T04:34:00.586Z,980.55
2023-01-19T04:35:02.355Z,980.6
2023-01-19T04:36:04.210Z,980.5
2023-01-19T04:37:05.849Z,980.55
2023-01-19T04:38:07.536Z,980.55
2023-01-19T04:39:09.265Z,980.57
2023-01-19T04:40:11.028Z,980.6
2023-01-19T04:41:12.760Z,980.52
2023-01-19T04:42:14.486Z,980.54
2023-01-19T04:43:16.272Z,980.53
2023-01-19T04:44:17.915Z,980.51
2023-01-19T04:45:19.654Z,980.58
2023-01-19T04:46:21.506Z,980.51
2023-01-19T04:47:23.161Z,980.51
2023-01-19T04:48:24.906Z,980.51
2023-01-19T04:49:26.605Z,980.48
2023-01-19T04:50:28.392Z,980.53
2023-01-19T04:51:30.082Z,980.48
2023-01-19T04:52:31.821Z,980.51
2023-01-19T04:53:33.572Z,980.49
2023-01-19T04:54:35.402Z,980.55
2023-01-19T04:55:36.998Z,980.57
2023-01-19T04:56:38.725Z,980.55
2023-01-19T04:57:40.475Z,980.57
2023-01-19T04:58:42.233Z,980.55
2023-01-19T04:59:43.935Z,980.6
2023-01-19T05:00:45.699Z,980.6
2023-01-19T05:01:47.425Z,980.61
2023-01-19T05:02:49.233Z,980.64
2023-01-19T05:03:50.925Z,980.64
2023-01-19T05:04:52.657Z,980.66
2023-01-19T05:05:54.350Z,980.66
2023-01-19T05:06:56.099Z,980.62
2023-01-19T05:07:57.792Z,980.59
2023-01-19T05:08:59.554Z,980.63
2023-01-19T05:10:01.263Z,980.64
2023-01-19T05:11:03.038Z,980.64
2023-01-19T05:12:04.719Z,980.66
2023-01-19T05:13:06.526Z,980.62
2023-01-19T05:14:08.254Z,980.6
2023-01-19T05:15:09.927Z,980.59
2023-01-19T05:16:11.739Z,980.59
2023-01-19T05:17:13.459Z,980.6
2023-01-19T05:18:15.135Z,980.69
2023-01-19T05:19:16.879Z,980.62
2023-01-19T05:20:18.637Z,980.59
2023-01-19T05:21:20.336Z,980.63
2023-01-19T05:22:22.067Z,980.65
2023-01-19T05:23:23.795Z,980.69
2023-01-19T05:24:25.597Z,980.65
2023-01-19T05:25:27.323Z,980.64
2023-01-19T05:26:29.006Z,980.6
2023-01-19T05:27:30.740Z,980.57
2023-01-19T05:28:32.502Z,980.62
2023-01-19T05:29:34.211Z,980.65
2023-01-19T05:30:35.974Z,980.64
2023-01-19T05:31:37.790Z,980.59
2023-01-19T05:32:39.405Z,980.64
2023-01-19T05:33:41.189Z,980.64
2023-01-19T05:34:42.883Z,980.7
2023-01-19T05:35:44.614Z,980.69
2023-01-19T05:36:46.354Z,980.72
2023-01-19T05:37:48.115Z,980.74
2023-01-19T05:38:49.807Z,980.68
2023-01-19T05:39:51.555Z,980.75
2023-01-19T05:40:53.276Z,980.74
2023-01-19T05:41:55.165Z,980.73
2023-01-19T05:42:56.704Z,980.78
2023-01-19T05:43:58.446Z,980.72
2023-01-19T05:45:00.248Z,980.79
2023-01-19T05:46:01.903Z,980.77
2023-01-19T05:47:03.649Z,980.74
2023-01-19T05:48:05.370Z,980.79
2023-01-19T05:49:07.132Z,980.8
2023-01-19T05:50:08.873Z,980.81
2023-01-19T05:51:10.565Z,980.84
2023-01-19T05:52:12.321Z,980.92
2023-01-19T05:53:14.069Z,980.87
2023-01-19T05:54:15.770Z,980.9
2023-01-19T05:55:17.509Z,980.88
2023-01-19T05:56:19.234Z,980.91
2023-01-19T05:57:20.968Z,980.92
2023-01-19T05:58:22.713Z,980.93
2023-01-19T05:59:24.518Z,980.95
2023-01-19T06:00:26.187Z,980.95
2023-01-19T06:01:28.017Z,980.95
2023-01-19T06:02:29.757Z,980.99
2023-01-19T06:03:31.496Z,981
2023-01-19T06:04:33.137Z,981.02
2023-01-19T06:05:34.872Z,980.99
2023-01-19T06:06:36.612Z,981.03
2023-01-19T06:11:17.685Z,981
2023-01-19T06:12:19.403Z,981.06
2023-01-19T06:13:20.509Z,981.07
2023-01-19T06:14:22.852Z,981.1
2023-01-19T06:15:24.604Z,981.06
2023-01-19T06:16:26.358Z,981.02
2023-01-19T06:17:28.077Z,981.1
2023-01-19T06:18:29.785Z,981.11
2023-01-19T06:19:31.562Z,981.13
2023-01-19T06:20:33.277Z,981.12
2023-01-19T06:21:35.046Z,981.13
2023-01-19T06:22:36.742Z,981.06
2023-01-19T06:23:38.486Z,981.07
2023-01-19T06:24:40.205Z,981.14
2023-01-19T06:25:41.971Z,981.12
2023-01-19T06:26:43.683Z,981.16
2023-01-19T06:27:45.457Z,981.18
2023-01-19T06:28:47.159Z,981.2
2023-01-19T06:29:48.902Z,981.14
2023-01-19T06:30:50.630Z,981.23
2023-01-19T06:31:52.431Z,981.2
2023-01-19T06:32:54.104Z,981.24
2023-01-19T06:33:55.789Z,981.24
2023-01-19T06:34:57.546Z,981.26
2023-01-19T06:35:59.279Z,981.25
2023-01-19T06:37:01.002Z,981.26
2023-01-19T06:38:02.812Z,981.33
2023-01-19T06:39:04.506Z,981.29
2023-01-19T06:40:06.209Z,981.28
2023-01-19T06:41:07.928Z,981.26
2023-01-19T06:42:09.662Z,981.25
2023-01-19T06:43:11.429Z,981.24
2023-01-19T06:44:13.137Z,981.28
2023-01-19T06:45:14.869Z,981.27
2023-01-19T06:46:16.731Z,981.23
2023-01-19T06:47:18.600Z,981.3
2023-01-19T06:48:20.125Z,981.32
2023-01-19T06:49:21.094Z,981.33
2023-01-19T06:50:23.589Z,981.27
2023-01-19T06:51:26.874Z,981.31
2023-01-19T06:52:31.481Z,981.41
2023-01-19T06:53:33.879Z,981.36
2023-01-19T06:54:35.637Z,981.4
2023-01-19T06:55:37.395Z,981.35
2023-01-19T06:56:39.147Z,981.41
2023-01-19T06:57:41.073Z,981.41
2023-01-19T06:58:42.582Z,981.4
2023-01-19T07:00:03.423Z,981.39
2023-01-19T07:01:05.247Z,981.34
2023-01-19T07:02:34.995Z,981.43
2023-01-19T07:08:25.784Z,981.41
2023-01-19T07:09:28.899Z,981.38
2023-01-19T07:11:25.850Z,981.45
2023-01-19T07:11:36.130Z,981.45
2023-01-19T07:12:37.904Z,981.41
2023-01-19T07:13:39.615Z,981.44
2023-01-19T07:14:42.832Z,981.37
2023-01-19T07:15:42.973Z,981.43
2023-01-19T07:20:40.320Z,981.43
2023-01-19T07:21:42.059Z,981.4
2023-01-19T07:22:43.801Z,981.46
2023-01-19T07:23:45.492Z,981.43
2023-01-19T07:24:47.278Z,981.47
2023-01-19T07:25:48.963Z,981.46
2023-01-19T07:26:50.692Z,981.43
2023-01-19T07:27:52.482Z,981.42
2023-01-19T07:28:54.221Z,981.41
2023-01-19T07:29:56.280Z,981.47
2023-01-19T07:31:48.486Z,981.47
2023-01-19T07:32:48.720Z,981.5
2023-01-19T07:33:51.405Z,981.47
2023-01-19T07:34:52.143Z,981.48
2023-01-19T07:35:55.014Z,981.55
2023-01-19T07:36:55.556Z,981.51
2023-01-19T07:37:57.360Z,981.48
2023-01-19T07:39:24.855Z,981.57
2023-01-19T07:40:26.530Z,981.52
2023-01-19T07:41:28.213Z,981.49
2023-01-19T07:42:29.966Z,981.53
2023-01-19T07:43:31.705Z,981.51
2023-01-19T07:44:33.462Z,981.51
2023-01-19T07:45:35.188Z,981.54
2023-01-19T07:46:36.906Z,981.53
2023-01-19T07:47:38.631Z,981.52
2023-01-19T07:48:40.356Z,981.58
2023-01-19T07:49:42.264Z,981.56
2023-01-19T07:51:13.043Z,981.57
2023-01-19T07:52:11.998Z,981.6
2023-01-19T07:55:03.423Z,981.53
2023-01-19T07:56:03.724Z,981.51
2023-01-19T07:57:05.157Z,981.46
2023-01-19T07:58:07.187Z,981.48
2023-01-19T07:59:10.506Z,981.42
2023-01-19T08:00:11.650Z,981.52
2023-01-19T08:01:12.673Z,981.5
2023-01-19T08:02:19.517Z,981.52
2023-01-19T08:03:36.081Z,981.54
2023-01-19T08:04:39.745Z,981.48
2023-01-19T08:05:40.178Z,981.51
2023-01-19T08:06:41.985Z,981.5
2023-01-19T08:07:43.687Z,981.51
2023-01-19T08:10:32.395Z,981.56
2023-01-19T08:11:34.130Z,981.48
2023-01-19T08:12:35.834Z,981.47
2023-01-19T08:13:37.574Z,981.6
2023-01-19T08:14:39.324Z,981.59
2023-01-19T08:15:41.092Z,981.55
2023-01-19T08:16:42.819Z,981.59
2023-01-19T08:17:48.587Z,981.55
2023-01-19T08:18:51.481Z,981.53
2023-01-19T08:19:53.135Z,981.54
2023-01-19T08:20:59.337Z,981.57
2023-01-19T08:22:02.088Z,981.52
2023-01-19T08:23:07.851Z,981.12
2023-01-19T08:24:10.455Z,981.6
2023-01-19T08:25:12.155Z,981.55
2023-01-19T08:26:13.905Z,981.58
2023-01-19T08:27:15.629Z,981.53
2023-01-19T08:28:17.417Z,981.57
2023-01-19T08:29:19.112Z,981.55
2023-01-19T08:30:20.831Z,981.57
2023-01-19T08:31:24.798Z,981.56
2023-01-19T08:32:24.419Z,981.57
2023-01-19T08:33:26.029Z,981.48
2023-01-19T08:34:27.818Z,981.58
2023-01-19T08:36:44.848Z,981.43
2023-01-19T08:37:47.194Z,981.64
2023-01-19T08:38:48.936Z,981.63
2023-01-19T08:39:50.673Z,981.63
2023-01-19T08:40:52.433Z,981.63
2023-01-19T08:41:54.176Z,981.58
2023-01-19T08:42:55.757Z,981.64
2023-01-19T08:43:57.492Z,981.62
2023-01-19T08:45:14.036Z,981.66
2023-01-19T08:46:14.315Z,981.67
2023-01-19T08:47:28.035Z,981.65
2023-01-19T08:48:33.124Z,981.6
2023-01-19T08:49:35.008Z,981.67
2023-01-19T08:51:05.928Z,981.69
2023-01-19T08:52:09.309Z,981.69
2023-01-19T08:53:45.901Z,981.62
2023-01-19T08:54:48.605Z,981.61
2023-01-19T08:55:50.324Z,981.67
2023-01-19T08:56:52.087Z,981.65
2023-01-19T08:57:53.848Z,981.66
2023-01-19T08:59:08.632Z,981.7
2023-01-19T08:59:58.518Z,981.7
2023-01-19T09:00:59.115Z,981.72
2023-01-19T09:02:00.937Z,981.74
2023-01-19T09:03:03.264Z,981.75
2023-01-19T09:04:05.747Z,981.72
2023-01-19T09:05:06.015Z,981.79
2023-01-19T09:06:07.767Z,981.74
2023-01-19T09:07:35.743Z,981.71
2023-01-19T09:08:37.970Z,981.75
2023-01-19T09:09:39.327Z,981.76
2023-01-19T09:10:40.018Z,981.75
2023-01-19T09:11:41.779Z,981.77
2023-01-19T09:12:47.839Z,981.77
2023-01-19T09:13:50.543Z,981.74
2023-01-19T09:14:52.345Z,981.81
2023-01-19T09:16:00.277Z,981.79
2023-01-19T09:17:08.004Z,981.83
2023-01-19T09:18:14.159Z,981.83
2023-01-19T09:19:35.270Z,981.8
2023-01-19T09:20:37.036Z,981.75
2023-01-19T09:21:38.776Z,981.8
2023-01-19T09:24:43.506Z,981.81
2023-01-19T09:26:23.144Z,981.83
2023-01-19T09:28:18.071Z,981.81
2023-01-19T09:30:38.026Z,981.83
2023-01-19T09:31:41.325Z,981.87
2023-01-19T09:32:41.498Z,981.79
2023-01-19T09:33:43.248Z,981.85
2023-01-19T09:34:49.264Z,981.89
2023-01-19T09:35:51.886Z,981.84
2023-01-19T09:36:53.619Z,981.85
2023-01-19T09:37:55.339Z,981.88
2023-01-19T09:38:57.065Z,981.88
2023-01-19T09:39:58.910Z,981.9
2023-01-19T09:41:00.590Z,981.86
2023-01-19T09:42:02.331Z,981.87
2023-01-19T09:43:37.479Z,981.93
2023-01-19T09:44:42.349Z,981.91
2023-01-19T09:46:04.131Z,981.93
2023-01-19T09:47:04.340Z,981.93
2023-01-19T09:48:05.414Z,981.93
2023-01-19T09:49:08.941Z,981.93
2023-01-19T09:50:09.496Z,981.78
2023-01-19T09:51:10.669Z,981.94
2023-01-19T09:52:23.236Z,981.95
2023-01-19T09:53:25.622Z,981.94
2023-01-19T09:54:26.465Z,981.95
2023-01-19T09:55:29.060Z,981.93
2023-01-19T09:56:30.781Z,981.97
2023-01-19T09:57:32.531Z,981.99
2023-01-19T09:58:34.367Z,981.98
2023-01-19T10:00:45.478Z,982
2023-01-19T10:01:47.902Z,982.04
2023-01-19T10:02:49.674Z,981.99
2023-01-19T10:04:35.786Z,981.99
2023-01-19T10:05:38.496Z,982.01
2023-01-19T10:06:41.453Z,981.9
2023-01-19T10:07:41.891Z,981.96
2023-01-19T10:08:43.611Z,981.97
2023-01-19T10:09:45.428Z,981.93
2023-01-19T10:10:48.593Z,982
2023-01-19T10:11:53.126Z,981.97
2023-01-19T10:12:50.546Z,981.97
2023-01-19T10:14:04.813Z,981.99
2023-01-19T10:15:26.240Z,981.97
2023-01-19T10:16:32.096Z,982.01
2023-01-19T10:17:36.027Z,982
2023-01-19T10:18:36.508Z,981.93
2023-01-19T10:19:38.288Z,981.98
2023-01-19T10:20:41.373Z,982.05
2023-01-19T10:21:41.675Z,981.99
2023-01-19T10:22:49.929Z,982.05
2023-01-19T10:23:50.346Z,982.01
2023-01-19T10:24:51.989Z,982.01
2023-01-19T10:26:00.815Z,981.96
2023-01-19T10:27:05.704Z,982.08
2023-01-19T10:28:07.452Z,982.08
2023-01-19T10:29:10.923Z,982.12
2023-01-19T10:30:10.941Z,982.02
2023-01-19T10:31:12.760Z,982.04
2023-01-19T10:32:14.681Z,981.99
2023-01-19T10:33:16.198Z,981.95
2023-01-19T10:35:30.423Z,981.99
2023-01-19T10:38:35.992Z,981.99
2023-01-19T10:39:38.849Z,982
2023-01-19T10:40:38.516Z,982.06
2023-01-19T10:41:41.134Z,982.02
2023-01-19T10:42:42.967Z,982.04
2023-01-19T10:43:45.562Z,981.99
2023-01-19T10:44:46.558Z,982
2023-01-19T10:45:48.168Z,982.02
2023-01-19T10:46:49.843Z,981.96
2023-01-19T10:47:53.116Z,981.98
2023-01-19T10:48:53.355Z,982
2023-01-19T10:49:55.105Z,981.88
2023-01-19T10:50:56.896Z,981.92
2023-01-19T10:51:58.707Z,981.94
2023-01-19T10:53:04.939Z,982
2023-01-19T10:54:08.838Z,981.97
2023-01-19T10:55:09.147Z,981.98
2023-01-19T10:56:10.761Z,981.99
2023-01-19T10:57:12.470Z,981.97
2023-01-19T10:58:14.254Z,981.99
2023-01-19T10:59:21.447Z,981.99
2023-01-19T11:00:22.907Z,982.02
2023-01-19T11:01:24.687Z,981.9
2023-01-19T11:02:26.648Z,981.95
2023-01-19T11:03:33.164Z,982.01
2023-01-19T11:04:34.937Z,982
2023-01-19T11:05:36.631Z,981.97
2023-01-19T11:06:38.308Z,981.85
2023-01-19T11:07:40.060Z,981.92
2023-01-19T11:08:41.783Z,981.92
2023-01-19T11:09:43.552Z,981.84
2023-01-19T11:10:45.258Z,981.89
2023-01-19T11:11:47.000Z,981.91
2023-01-19T11:12:48.756Z,981.87
2023-01-19T11:13:50.470Z,981.94
2023-01-19T11:14:52.225Z,981.86
2023-01-19T11:15:54.001Z,981.85
2023-01-19T11:17:03.967Z,981.88
2023-01-19T11:18:07.254Z,981.65
2023-01-19T11:19:07.481Z,981.87
2023-01-19T11:20:09.180Z,981.91
2023-01-19T11:21:10.890Z,981.91
2023-01-19T11:22:12.670Z,981.91
2023-01-19T11:23:14.395Z,981.91
2023-01-19T11:24:16.115Z,981.87
2023-01-19T11:25:17.872Z,981.85
2023-01-19T11:26:19.581Z,981.9
2023-01-19T11:27:21.348Z,981.95
2023-01-19T11:28:23.033Z,981.87
2023-01-19T11:29:24.747Z,981.94
2023-01-19T11:30:26.491Z,981.92
2023-01-19T11:31:28.415Z,981.93
2023-01-19T11:32:29.971Z,981.88
2023-01-19T11:33:31.713Z,981.94
2023-01-19T11:34:33.467Z,981.9
2023-01-19T11:35:35.174Z,981.94
2023-01-19T11:36:36.905Z,981.87
2023-01-19T11:37:38.669Z,981.96
2023-01-19T11:38:40.426Z,981.93
2023-01-19T11:39:42.110Z,981.92
2023-01-19T11:40:43.897Z,981.97
2023-01-19T11:41:45.584Z,981.94
2023-01-19T11:42:47.303Z,981.93
2023-01-19T11:43:49.577Z,981.97
2023-01-19T11:44:53.024Z,981.99
2023-01-19T11:45:57.731Z,981.99
2023-01-19T11:46:59.456Z,981.92
2023-01-19T11:48:01.488Z,981.95
2023-01-19T11:49:02.931Z,981.93
2023-01-19T11:50:05.725Z,981.87
2023-01-19T11:51:32.786Z,981.89
2023-01-19T11:52:35.973Z,981.9
2023-01-19T11:53:37.523Z,981.92
2023-01-19T11:54:38.041Z,981.89
2023-01-19T11:55:39.764Z,981.86
2023-01-19T11:56:41.493Z,981.87
2023-01-19T11:57:43.223Z,981.9
2023-01-19T11:58:44.956Z,981.93
2023-01-19T11:59:51.088Z,981.92
2023-01-19T12:00:48.482Z,981.93
2023-01-19T12:01:51.639Z,981.89
2023-01-19T12:02:51.895Z,981.82
2023-01-19T12:03:54.897Z,981.97
2023-01-19T12:04:55.347Z,981.96
2023-01-19T12:05:57.095Z,981.91
2023-01-19T12:06:58.785Z,982
2023-01-19T12:08:00.853Z,981.88
2023-01-19T12:09:07.490Z,981.93
2023-01-19T12:10:09.201Z,981.94
2023-01-19T12:11:10.951Z,981.89
2023-01-19T12:12:12.688Z,981.84
2023-01-19T12:13:14.398Z,981.88
2023-01-19T12:14:16.141Z,981.9
2023-01-19T12:15:17.887Z,981.87
2023-01-19T12:16:19.751Z,981.84
2023-01-19T12:17:21.384Z,981.85
2023-01-19T12:18:22.066Z,981.86
2023-01-19T12:19:24.867Z,981.84
2023-01-19T12:20:26.609Z,981.81
2023-01-19T12:21:28.323Z,981.81
2023-01-19T12:22:30.081Z,981.81
2023-01-19T12:23:30.913Z,981.81
2023-01-19T12:24:34.722Z,981.86
2023-01-19T12:25:35.282Z,981.7
2023-01-19T12:26:38.271Z,981.77
2023-01-19T12:27:38.707Z,981.76
2023-01-19T12:28:43.063Z,981.75
2023-01-19T12:29:47.342Z,981.71
2023-01-19T12:30:49.121Z,981.72
2023-01-19T12:31:51.881Z,981.75
2023-01-19T12:33:03.477Z,981.74
2023-01-19T12:34:33.221Z,981.73
2023-01-19T12:35:34.867Z,981.77
2023-01-19T12:36:36.651Z,981.66
2023-01-19T12:37:38.338Z,981.68
2023-01-19T12:38:40.134Z,981.71
2023-01-19T12:39:47.759Z,981.72
2023-01-19T12:40:50.108Z,981.63
2023-01-19T12:41:50.482Z,981.71
2023-01-19T12:42:52.211Z,981.66
2023-01-19T12:43:53.946Z,981.66
2023-01-19T12:44:55.620Z,981.68
2023-01-19T12:45:57.438Z,981.63
2023-01-19T12:46:59.101Z,981.66
2023-01-19T12:48:00.882Z,981.59
2023-01-19T12:49:02.611Z,981.69
2023-01-19T12:50:04.461Z,981.64
2023-01-19T12:51:06.083Z,981.66
2023-01-19T12:52:07.784Z,981.69
2023-01-19T12:53:09.521Z,981.67
2023-01-19T12:54:11.259Z,981.71
2023-01-19T12:55:13.017Z,981.64
2023-01-19T12:56:18.998Z,981.71
2023-01-19T12:57:19.585Z,981.59
2023-01-19T12:58:21.357Z,981.67
2023-01-19T12:59:23.073Z,981.69
2023-01-19T13:00:24.773Z,981.67
2023-01-19T13:01:26.641Z,981.69
2023-01-19T13:02:28.370Z,981.67
2023-01-19T13:03:30.025Z,981.68
2023-01-19T13:04:31.846Z,981.62
2023-01-19T13:05:34.899Z,981.71
2023-01-19T13:06:35.269Z,981.75
2023-01-19T13:07:36.900Z,981.77
2023-01-19T13:08:38.646Z,981.74
2023-01-19T13:09:40.385Z,981.74
2023-01-19T13:10:42.086Z,981.81
2023-01-19T13:11:46.421Z,981.79
2023-01-19T13:12:45.573Z,981.68
2023-01-19T13:13:47.310Z,981.74
2023-01-19T13:14:49.022Z,981.74
2023-01-19T13:15:50.805Z,981.74
2023-01-19T13:16:52.554Z,981.71
2023-01-19T13:17:54.237Z,981.78
2023-01-19T13:18:56.050Z,981.78
2023-01-19T13:19:57.721Z,981.69
2023-01-19T13:21:47.862Z,981.68
2023-01-19T13:22:52.403Z,981.66
2023-01-19T13:23:54.160Z,981.72
2023-01-19T13:24:56.988Z,981.75
2023-01-19T13:25:57.586Z,981.76
2023-01-19T13:26:59.317Z,981.68
2023-01-19T13:28:01.099Z,981.72
2023-01-19T13:29:02.792Z,981.72
2023-01-19T13:30:04.574Z,981.71
2023-01-19T13:31:06.443Z,981.73